CNV6 weather

Orillia/Lake St John Seaplane Base
Ontario, Canada

Public forecast

Using degrees Celsius for public forecast. Weather courtesy of forecast.io.

METAR (pilot weather report)

Closest report is Muskoka Airport, 17.5 nm (32.4 km) N. Retrieved 2019/04/20 04:04 UTC (1 minute ago):

CYQA 200404Z AUTO 02007KT 330V060 9SM -RA SCT016 OVC048 03/02 A2976 RMK SLP088

TAF (pilot weather forecast)

Forecast is more than 6 hours old.

Closest forecast is Muskoka Airport, 17.5 nm (32.4 km) N. Retrieved 2019/04/19 20:00 UTC (8 hours ago):

TAF CYQA 191938Z 1920/2002 03006KT P6SM OVC012 TEMPO 1920/2002 5SM -RA BR BKN008 OVC010 BECMG 1920/1922 03010G20KT RMK FCST BASED ON AUTO OBS. NXT FCST WILL BE ISSUED AT 201145Z